sensor_id;sensor_type;location;lat;lon;timestamp;P1;durP1;ratioP1;P2;durP2;ratioP2
40787;SDS011;26497;52.494;7.546;2023-07-31T00:00:14;1999.90;;;999.90;;
40787;SDS011;26497;52.494;7.546;2023-07-31T00:02:42;1999.90;;;999.90;;
40787;SDS011;26497;52.494;7.546;2023-07-31T00:05:09;1999.90;;;999.90;;
40787;SDS011;26497;52.494;7.546;2023-07-31T00:07:36;1999.90;;;999.90;;
40787;SDS011;26497;52.494;7.546;2023-07-31T00:10:03;1999.90;;;999.90;;
40787;SDS011;26497;52.494;7.546;2023-07-31T00:12:31;1999.90;;;999.90;;
40787;SDS011;26497;52.494;7.546;2023-07-31T00:14:58;1999.90;;;999.90;;
40787;SDS011;26497;52.494;7.546;2023-07-31T00:17:25;1999.90;;;999.90;;
40787;SDS011;26497;52.494;7.546;2023-07-31T00:19:53;1999.90;;;999.90;;
40787;SDS011;26497;52.494;7.546;2023-07-31T00:22:20;1999.90;;;999.90;;
40787;SDS011;26497;52.494;7.546;2023-07-31T00:24:47;1999.90;;;999.90;;
40787;SDS011;26497;52.494;7.546;2023-07-31T00:27:14;1999.90;;;999.90;;
40787;SDS011;26497;52.494;7.546;2023-07-31T00:29:41;1999.90;;;999.90;;
40787;SDS011;26497;52.494;7.546;2023-07-31T00:32:08;1999.90;;;999.90;;
40787;SDS011;26497;52.494;7.546;2023-07-31T00:34:35;1999.90;;;999.90;;
40787;SDS011;26497;52.494;7.546;2023-07-31T00:37:05;580.75;;;326.25;;
40787;SDS011;26497;52.494;7.546;2023-07-31T00:39:33;102.97;;;97.07;;
40787;SDS011;26497;52.494;7.546;2023-07-31T00:42:00;102.40;;;96.72;;
40787;SDS011;26497;52.494;7.546;2023-07-31T00:44:28;102.13;;;96.43;;
40787;SDS011;26497;52.494;7.546;2023-07-31T00:46:55;98.53;;;92.97;;
40787;SDS011;26497;52.494;7.546;2023-07-31T00:49:23;94.82;;;89.68;;
40787;SDS011;26497;52.494;7.546;2023-07-31T00:51:51;97.03;;;91.78;;
40787;SDS011;26497;52.494;7.546;2023-07-31T00:54:20;94.95;;;89.53;;
40787;SDS011;26497;52.494;7.546;2023-07-31T00:56:47;94.32;;;89.20;;
40787;SDS011;26497;52.494;7.546;2023-07-31T00:59:16;92.30;;;87.32;;
40787;SDS011;26497;52.494;7.546;2023-07-31T01:01:43;91.28;;;86.18;;
40787;SDS011;26497;52.494;7.546;2023-07-31T01:04:11;87.95;;;82.57;;
40787;SDS011;26497;52.494;7.546;2023-07-31T01:06:40;84.55;;;78.97;;
40787;SDS011;26497;52.494;7.546;2023-07-31T01:09:16;80.72;;;75.88;;
40787;SDS011;26497;52.494;7.546;2023-07-31T01:11:56;79.60;;;75.15;;
40787;SDS011;26497;52.494;7.546;2023-07-31T01:14:27;80.63;;;76.07;;
40787;SDS011;26497;52.494;7.546;2023-07-31T01:16:54;82.97;;;78.03;;
40787;SDS011;26497;52.494;7.546;2023-07-31T01:19:22;82.55;;;77.90;;
40787;SDS011;26497;52.494;7.546;2023-07-31T01:21:57;80.93;;;76.38;;
40787;SDS011;26497;52.494;7.546;2023-07-31T01:24:52;78.20;;;73.32;;
40787;SDS011;26497;52.494;7.546;2023-07-31T01:27:30;78.78;;;73.95;;
40787;SDS011;26497;52.494;7.546;2023-07-31T01:30:03;80.68;;;76.30;;
40787;SDS011;26497;52.494;7.546;2023-07-31T01:32:39;78.13;;;73.60;;
40787;SDS011;26497;52.494;7.546;2023-07-31T01:35:08;82.07;;;77.30;;
40787;SDS011;26497;52.494;7.546;2023-07-31T01:37:36;80.53;;;75.97;;
40787;SDS011;26497;52.494;7.546;2023-07-31T01:40:04;81.70;;;77.07;;
40787;SDS011;26497;52.494;7.546;2023-07-31T01:42:33;81.70;;;77.25;;
40787;SDS011;26497;52.494;7.546;2023-07-31T01:45:00;81.43;;;77.00;;
40787;SDS011;26497;52.494;7.546;2023-07-31T01:47:27;83.03;;;78.43;;
40787;SDS011;26497;52.494;7.546;2023-07-31T01:49:54;80.80;;;76.15;;
40787;SDS011;26497;52.494;7.546;2023-07-31T01:52:21;82.65;;;77.47;;
40787;SDS011;26497;52.494;7.546;2023-07-31T01:54:48;80.53;;;76.20;;
40787;SDS011;26497;52.494;7.546;2023-07-31T01:57:15;81.97;;;77.57;;
40787;SDS011;26497;52.494;7.546;2023-07-31T01:59:43;79.05;;;74.57;;
40787;SDS011;26497;52.494;7.546;2023-07-31T02:02:10;81.65;;;77.15;;
40787;SDS011;26497;52.494;7.546;2023-07-31T02:04:37;84.15;;;79.63;;
40787;SDS011;26497;52.494;7.546;2023-07-31T02:07:05;83.90;;;79.45;;
40787;SDS011;26497;52.494;7.546;2023-07-31T02:09:32;82.78;;;77.90;;
40787;SDS011;26497;52.494;7.546;2023-07-31T02:11:59;82.68;;;78.25;;
40787;SDS011;26497;52.494;7.546;2023-07-31T02:14:26;81.88;;;77.60;;
40787;SDS011;26497;52.494;7.546;2023-07-31T02:16:54;83.18;;;78.68;;
40787;SDS011;26497;52.494;7.546;2023-07-31T02:19:21;82.43;;;78.07;;
40787;SDS011;26497;52.494;7.546;2023-07-31T02:21:48;82.88;;;78.43;;
40787;SDS011;26497;52.494;7.546;2023-07-31T02:24:15;84.40;;;79.88;;
40787;SDS011;26497;52.494;7.546;2023-07-31T02:26:42;90.32;;;85.28;;
40787;SDS011;26497;52.494;7.546;2023-07-31T02:29:08;84.60;;;80.13;;
40787;SDS011;26497;52.494;7.546;2023-07-31T02:31:35;92.97;;;87.80;;
40787;SDS011;26497;52.494;7.546;2023-07-31T02:34:03;86.85;;;82.28;;
40787;SDS011;26497;52.494;7.546;2023-07-31T02:36:30;87.43;;;82.55;;
40787;SDS011;26497;52.494;7.546;2023-07-31T02:38:57;84.78;;;80.28;;
40787;SDS011;26497;52.494;7.546;2023-07-31T02:41:24;83.13;;;78.75;;
40787;SDS011;26497;52.494;7.546;2023-07-31T02:43:51;86.30;;;81.68;;
40787;SDS011;26497;52.494;7.546;2023-07-31T02:46:19;83.15;;;78.57;;
40787;SDS011;26497;52.494;7.546;2023-07-31T02:48:49;78.25;;;74.07;;
40787;SDS011;26497;52.494;7.546;2023-07-31T02:51:17;78.95;;;74.88;;
40787;SDS011;26497;52.494;7.546;2023-07-31T02:53:46;80.93;;;76.65;;
40787;SDS011;26497;52.494;7.546;2023-07-31T02:56:13;82.97;;;78.57;;
40787;SDS011;26497;52.494;7.546;2023-07-31T02:58:40;83.10;;;78.45;;
40787;SDS011;26497;52.494;7.546;2023-07-31T03:01:07;87.13;;;81.80;;
40787;SDS011;26497;52.494;7.546;2023-07-31T03:03:34;89.45;;;84.55;;
40787;SDS011;26497;52.494;7.546;2023-07-31T03:06:01;88.68;;;83.78;;
40787;SDS011;26497;52.494;7.546;2023-07-31T03:08:29;87.40;;;82.38;;
40787;SDS011;26497;52.494;7.546;2023-07-31T03:10:56;85.72;;;80.93;;
40787;SDS011;26497;52.494;7.546;2023-07-31T03:13:23;82.70;;;77.68;;
40787;SDS011;26497;52.494;7.546;2023-07-31T03:15:50;84.20;;;79.68;;
40787;SDS011;26497;52.494;7.546;2023-07-31T03:18:17;86.60;;;81.93;;
40787;SDS011;26497;52.494;7.546;2023-07-31T03:20:44;85.63;;;81.13;;
40787;SDS011;26497;52.494;7.546;2023-07-31T03:23:11;87.60;;;82.97;;
40787;SDS011;26497;52.494;7.546;2023-07-31T03:25:41;88.50;;;83.82;;
40787;SDS011;26497;52.494;7.546;2023-07-31T03:28:22;84.38;;;79.43;;
40787;SDS011;26497;52.494;7.546;2023-07-31T03:30:49;88.13;;;83.38;;
40787;SDS011;26497;52.494;7.546;2023-07-31T03:33:17;92.50;;;86.88;;
40787;SDS011;26497;52.494;7.546;2023-07-31T03:35:44;89.28;;;84.30;;
40787;SDS011;26497;52.494;7.546;2023-07-31T03:38:11;90.40;;;85.70;;
40787;SDS011;26497;52.494;7.546;2023-07-31T03:40:39;92.22;;;86.90;;
40787;SDS011;26497;52.494;7.546;2023-07-31T03:43:06;90.65;;;85.95;;
40787;SDS011;26497;52.494;7.546;2023-07-31T03:45:33;94.38;;;89.50;;
40787;SDS011;26497;52.494;7.546;2023-07-31T03:48:00;96.72;;;91.57;;
40787;SDS011;26497;52.494;7.546;2023-07-31T03:50:27;97.95;;;92.72;;
40787;SDS011;26497;52.494;7.546;2023-07-31T03:52:54;98.22;;;93.00;;
40787;SDS011;26497;52.494;7.546;2023-07-31T03:55:21;95.68;;;90.78;;
40787;SDS011;26497;52.494;7.546;2023-07-31T03:57:50;102.50;;;97.10;;
40787;SDS011;26497;52.494;7.546;2023-07-31T04:00:17;103.32;;;97.90;;
40787;SDS011;26497;52.494;7.546;2023-07-31T04:02:44;104.80;;;99.07;;
40787;SDS011;26497;52.494;7.546;2023-07-31T04:05:11;104.43;;;98.75;;
40787;SDS011;26497;52.494;7.546;2023-07-31T04:07:38;103.05;;;97.50;;
40787;SDS011;26497;52.494;7.546;2023-07-31T04:10:05;101.68;;;96.20;;
40787;SDS011;26497;52.494;7.546;2023-07-31T04:12:33;106.32;;;100.78;;
40787;SDS011;26497;52.494;7.546;2023-07-31T04:15:01;111.35;;;105.30;;
40787;SDS011;26497;52.494;7.546;2023-07-31T04:17:28;110.22;;;104.07;;
40787;SDS011;26497;52.494;7.546;2023-07-31T04:19:55;114.63;;;108.47;;
40787;SDS011;26497;52.494;7.546;2023-07-31T04:22:22;123.93;;;117.00;;
40787;SDS011;26497;52.494;7.546;2023-07-31T04:24:49;122.15;;;115.57;;
40787;SDS011;26497;52.494;7.546;2023-07-31T04:27:16;129.05;;;122.03;;
40787;SDS011;26497;52.494;7.546;2023-07-31T04:29:43;128.98;;;121.68;;
40787;SDS011;26497;52.494;7.546;2023-07-31T04:32:13;142.13;;;134.07;;
40787;SDS011;26497;52.494;7.546;2023-07-31T04:34:41;141.80;;;133.60;;
40787;SDS011;26497;52.494;7.546;2023-07-31T04:37:08;137.75;;;130.38;;
40787;SDS011;26497;52.494;7.546;2023-07-31T04:39:35;144.43;;;136.55;;
40787;SDS011;26497;52.494;7.546;2023-07-31T04:42:02;143.93;;;136.02;;
40787;SDS011;26497;52.494;7.546;2023-07-31T04:44:30;141.95;;;133.98;;
40787;SDS011;26497;52.494;7.546;2023-07-31T04:46:57;145.90;;;137.88;;
40787;SDS011;26497;52.494;7.546;2023-07-31T04:49:25;136.80;;;129.02;;
40787;SDS011;26497;52.494;7.546;2023-07-31T04:51:52;137.93;;;129.73;;
40787;SDS011;26497;52.494;7.546;2023-07-31T04:54:19;145.52;;;136.40;;
40787;SDS011;26497;52.494;7.546;2023-07-31T04:56:46;150.27;;;141.40;;
40787;SDS011;26497;52.494;7.546;2023-07-31T04:59:13;155.13;;;145.20;;
40787;SDS011;26497;52.494;7.546;2023-07-31T05:01:40;154.60;;;144.00;;
40787;SDS011;26497;52.494;7.546;2023-07-31T05:04:07;162.18;;;151.75;;
40787;SDS011;26497;52.494;7.546;2023-07-31T05:06:36;157.25;;;146.77;;
40787;SDS011;26497;52.494;7.546;2023-07-31T05:09:03;159.23;;;148.75;;
40787;SDS011;26497;52.494;7.546;2023-07-31T05:11:30;169.27;;;157.60;;
40787;SDS011;26497;52.494;7.546;2023-07-31T05:13:57;160.75;;;149.77;;
40787;SDS011;26497;52.494;7.546;2023-07-31T05:16:24;165.55;;;153.60;;
40787;SDS011;26497;52.494;7.546;2023-07-31T05:18:50;159.02;;;147.82;;
40787;SDS011;26497;52.494;7.546;2023-07-31T05:21:17;172.77;;;160.18;;
40787;SDS011;26497;52.494;7.546;2023-07-31T05:23:46;175.10;;;161.63;;
40787;SDS011;26497;52.494;7.546;2023-07-31T05:26:13;172.32;;;158.85;;
40787;SDS011;26497;52.494;7.546;2023-07-31T05:28:40;175.38;;;161.07;;
40787;SDS011;26497;52.494;7.546;2023-07-31T05:31:07;176.75;;;163.40;;
40787;SDS011;26497;52.494;7.546;2023-07-31T05:33:34;181.20;;;167.02;;
40787;SDS011;26497;52.494;7.546;2023-07-31T05:36:01;174.15;;;161.00;;
40787;SDS011;26497;52.494;7.546;2023-07-31T05:38:28;167.88;;;154.70;;
40787;SDS011;26497;52.494;7.546;2023-07-31T05:40:56;170.27;;;157.50;;
40787;SDS011;26497;52.494;7.546;2023-07-31T05:43:23;176.05;;;160.70;;
40787;SDS011;26497;52.494;7.546;2023-07-31T05:45:50;164.25;;;149.52;;
40787;SDS011;26497;52.494;7.546;2023-07-31T05:48:17;166.68;;;152.18;;
40787;SDS011;26497;52.494;7.546;2023-07-31T05:50:44;174.50;;;159.10;;
40787;SDS011;26497;52.494;7.546;2023-07-31T05:53:11;177.10;;;161.90;;
40787;SDS011;26497;52.494;7.546;2023-07-31T05:55:38;174.07;;;159.52;;
40787;SDS011;26497;52.494;7.546;2023-07-31T05:58:07;167.45;;;154.38;;
40787;SDS011;26497;52.494;7.546;2023-07-31T06:00:34;146.63;;;133.85;;
40787;SDS011;26497;52.494;7.546;2023-07-31T06:03:01;149.45;;;136.38;;
40787;SDS011;26497;52.494;7.546;2023-07-31T06:05:29;144.60;;;132.40;;
40787;SDS011;26497;52.494;7.546;2023-07-31T06:07:56;152.48;;;139.48;;
40787;SDS011;26497;52.494;7.546;2023-07-31T06:10:23;136.80;;;126.07;;
40787;SDS011;26497;52.494;7.546;2023-07-31T06:12:50;145.88;;;134.45;;
40787;SDS011;26497;52.494;7.546;2023-07-31T06:15:19;147.43;;;135.10;;
40787;SDS011;26497;52.494;7.546;2023-07-31T06:17:46;141.25;;;130.50;;
40787;SDS011;26497;52.494;7.546;2023-07-31T06:20:13;144.57;;;132.10;;
40787;SDS011;26497;52.494;7.546;2023-07-31T06:22:40;150.27;;;137.13;;
40787;SDS011;26497;52.494;7.546;2023-07-31T06:25:07;143.88;;;131.82;;
40787;SDS011;26497;52.494;7.546;2023-07-31T06:27:35;146.55;;;134.98;;
40787;SDS011;26497;52.494;7.546;2023-07-31T06:30:02;152.95;;;140.30;;
40787;SDS011;26497;52.494;7.546;2023-07-31T06:32:31;147.25;;;136.20;;
40787;SDS011;26497;52.494;7.546;2023-07-31T06:34:58;146.82;;;136.18;;
40787;SDS011;26497;52.494;7.546;2023-07-31T06:37:25;146.48;;;135.98;;
40787;SDS011;26497;52.494;7.546;2023-07-31T06:39:52;142.45;;;131.43;;
40787;SDS011;26497;52.494;7.546;2023-07-31T06:42:19;157.75;;;146.77;;
40787;SDS011;26497;52.494;7.546;2023-07-31T06:44:46;181.98;;;168.10;;
40787;SDS011;26497;52.494;7.546;2023-07-31T06:47:13;180.40;;;167.70;;
40787;SDS011;26497;52.494;7.546;2023-07-31T06:49:41;162.18;;;149.35;;
40787;SDS011;26497;52.494;7.546;2023-07-31T06:52:08;147.10;;;136.98;;
40787;SDS011;26497;52.494;7.546;2023-07-31T06:54:36;129.77;;;120.32;;
40787;SDS011;26497;52.494;7.546;2023-07-31T06:57:03;121.43;;;111.97;;
40787;SDS011;26497;52.494;7.546;2023-07-31T06:59:30;117.45;;;108.63;;
40787;SDS011;26497;52.494;7.546;2023-07-31T07:02:15;119.43;;;110.78;;
40787;SDS011;26497;52.494;7.546;2023-07-31T07:04:44;129.75;;;119.93;;
40787;SDS011;26497;52.494;7.546;2023-07-31T07:07:11;132.52;;;121.65;;
40787;SDS011;26497;52.494;7.546;2023-07-31T07:09:38;128.55;;;119.45;;
40787;SDS011;26497;52.494;7.546;2023-07-31T07:12:06;128.32;;;119.43;;
40787;SDS011;26497;52.494;7.546;2023-07-31T07:14:34;127.63;;;117.88;;
40787;SDS011;26497;52.494;7.546;2023-07-31T07:17:01;121.15;;;113.05;;
40787;SDS011;26497;52.494;7.546;2023-07-31T07:19:28;138.23;;;127.95;;
40787;SDS011;26497;52.494;7.546;2023-07-31T07:21:57;138.80;;;128.60;;
40787;SDS011;26497;52.494;7.546;2023-07-31T07:24:26;131.18;;;122.05;;
40787;SDS011;26497;52.494;7.546;2023-07-31T07:26:53;141.23;;;132.25;;
40787;SDS011;26497;52.494;7.546;2023-07-31T07:29:20;146.13;;;135.90;;
40787;SDS011;26497;52.494;7.546;2023-07-31T07:31:47;140.82;;;131.73;;
40787;SDS011;26497;52.494;7.546;2023-07-31T07:34:14;133.48;;;124.75;;
40787;SDS011;26497;52.494;7.546;2023-07-31T07:36:41;128.48;;;119.13;;
40787;SDS011;26497;52.494;7.546;2023-07-31T07:39:09;125.38;;;116.90;;
40787;SDS011;26497;52.494;7.546;2023-07-31T07:41:37;124.93;;;116.28;;
40787;SDS011;26497;52.494;7.546;2023-07-31T07:44:04;128.57;;;118.93;;
40787;SDS011;26497;52.494;7.546;2023-07-31T07:46:31;129.70;;;121.03;;
40787;SDS011;26497;52.494;7.546;2023-07-31T07:48:58;127.05;;;118.72;;
40787;SDS011;26497;52.494;7.546;2023-07-31T07:51:25;129.75;;;120.88;;
40787;SDS011;26497;52.494;7.546;2023-07-31T07:53:52;121.85;;;114.28;;
40787;SDS011;26497;52.494;7.546;2023-07-31T07:56:20;123.82;;;115.70;;
40787;SDS011;26497;52.494;7.546;2023-07-31T07:58:48;119.88;;;110.93;;
40787;SDS011;26497;52.494;7.546;2023-07-31T08:01:15;115.97;;;108.43;;
40787;SDS011;26497;52.494;7.546;2023-07-31T08:03:42;117.05;;;110.05;;
40787;SDS011;26497;52.494;7.546;2023-07-31T08:06:09;115.53;;;107.75;;
40787;SDS011;26497;52.494;7.546;2023-07-31T08:08:36;120.10;;;112.60;;
40787;SDS011;26497;52.494;7.546;2023-07-31T08:11:04;118.78;;;111.45;;
40787;SDS011;26497;52.494;7.546;2023-07-31T08:13:33;119.45;;;111.68;;
40787;SDS011;26497;52.494;7.546;2023-07-31T08:16:01;118.40;;;110.35;;
40787;SDS011;26497;52.494;7.546;2023-07-31T08:18:29;116.00;;;109.28;;
40787;SDS011;26497;52.494;7.546;2023-07-31T08:20:56;115.95;;;108.60;;
40787;SDS011;26497;52.494;7.546;2023-07-31T08:23:23;121.72;;;113.95;;
40787;SDS011;26497;52.494;7.546;2023-07-31T08:25:50;122.18;;;114.47;;
40787;SDS011;26497;52.494;7.546;2023-07-31T08:28:17;107.15;;;100.63;;
40787;SDS011;26497;52.494;7.546;2023-07-31T08:30:46;114.30;;;107.28;;
40787;SDS011;26497;52.494;7.546;2023-07-31T08:33:13;118.38;;;111.53;;
40787;SDS011;26497;52.494;7.546;2023-07-31T08:35:40;125.57;;;118.30;;
40787;SDS011;26497;52.494;7.546;2023-07-31T08:38:07;598.22;;;342.60;;
40787;SDS011;26497;52.494;7.546;2023-07-31T08:40:35;1999.90;;;999.90;;
40787;SDS011;26497;52.494;7.546;2023-07-31T08:43:03;598.38;;;342.52;;
40787;SDS011;26497;52.494;7.546;2023-07-31T08:45:30;122.47;;;115.50;;
40787;SDS011;26497;52.494;7.546;2023-07-31T08:47:59;122.95;;;115.80;;
40787;SDS011;26497;52.494;7.546;2023-07-31T08:50:26;125.60;;;118.20;;
40787;SDS011;26497;52.494;7.546;2023-07-31T08:52:53;123.30;;;116.20;;
40787;SDS011;26497;52.494;7.546;2023-07-31T08:55:20;118.53;;;112.03;;
40787;SDS011;26497;52.494;7.546;2023-07-31T08:57:50;121.05;;;114.15;;
40787;SDS011;26497;52.494;7.546;2023-07-31T09:00:18;118.57;;;112.28;;
40787;SDS011;26497;52.494;7.546;2023-07-31T09:02:51;122.32;;;115.28;;
40787;SDS011;26497;52.494;7.546;2023-07-31T09:05:25;117.85;;;111.38;;
40787;SDS011;26497;52.494;7.546;2023-07-31T09:07:53;117.70;;;111.22;;
40787;SDS011;26497;52.494;7.546;2023-07-31T09:10:22;118.07;;;111.78;;
40787;SDS011;26497;52.494;7.546;2023-07-31T09:12:50;116.28;;;109.82;;
40787;SDS011;26497;52.494;7.546;2023-07-31T09:15:18;116.07;;;109.90;;
40787;SDS011;26497;52.494;7.546;2023-07-31T09:17:46;116.53;;;110.28;;
40787;SDS011;26497;52.494;7.546;2023-07-31T09:20:14;120.35;;;113.95;;
40787;SDS011;26497;52.494;7.546;2023-07-31T09:22:44;120.38;;;114.05;;
40787;SDS011;26497;52.494;7.546;2023-07-31T09:25:15;115.75;;;109.60;;
40787;SDS011;26497;52.494;7.546;2023-07-31T09:27:46;111.43;;;105.57;;
40787;SDS011;26497;52.494;7.546;2023-07-31T09:30:15;118.78;;;112.53;;
40787;SDS011;26497;52.494;7.546;2023-07-31T09:32:43;91.40;;;86.38;;
40787;SDS011;26497;52.494;7.546;2023-07-31T09:35:15;95.20;;;90.20;;
40787;SDS011;26497;52.494;7.546;2023-07-31T09:37:52;101.07;;;95.82;;
40787;SDS011;26497;52.494;7.546;2023-07-31T09:40:25;78.75;;;74.68;;
40787;SDS011;26497;52.494;7.546;2023-07-31T09:42:55;71.90;;;68.25;;
40787;SDS011;26497;52.494;7.546;2023-07-31T09:45:23;67.88;;;64.38;;
40787;SDS011;26497;52.494;7.546;2023-07-31T09:47:51;68.75;;;65.35;;
40787;SDS011;26497;52.494;7.546;2023-07-31T09:50:19;66.43;;;63.03;;
40787;SDS011;26497;52.494;7.546;2023-07-31T09:52:48;63.35;;;60.15;;
40787;SDS011;26497;52.494;7.546;2023-07-31T09:55:17;65.22;;;61.92;;
40787;SDS011;26497;52.494;7.546;2023-07-31T09:57:45;68.57;;;65.18;;
40787;SDS011;26497;52.494;7.546;2023-07-31T10:00:14;67.40;;;64.05;;
40787;SDS011;26497;52.494;7.546;2023-07-31T10:02:44;67.70;;;64.30;;
40787;SDS011;26497;52.494;7.546;2023-07-31T10:05:13;68.03;;;64.53;;
40787;SDS011;26497;52.494;7.546;2023-07-31T10:07:42;67.00;;;63.60;;
40787;SDS011;26497;52.494;7.546;2023-07-31T10:10:18;67.43;;;63.83;;
40787;SDS011;26497;52.494;7.546;2023-07-31T10:12:48;66.80;;;63.42;;
40787;SDS011;26497;52.494;7.546;2023-07-31T10:15:15;68.35;;;64.95;;
40787;SDS011;26497;52.494;7.546;2023-07-31T10:17:43;65.00;;;61.15;;
40787;SDS011;26497;52.494;7.546;2023-07-31T10:20:12;69.05;;;65.55;;
40787;SDS011;26497;52.494;7.546;2023-07-31T10:22:41;72.05;;;68.45;;
40787;SDS011;26497;52.494;7.546;2023-07-31T10:25:11;75.70;;;71.90;;
40787;SDS011;26497;52.494;7.546;2023-07-31T10:27:39;74.88;;;71.07;;
40787;SDS011;26497;52.494;7.546;2023-07-31T10:30:07;70.55;;;66.68;;
40787;SDS011;26497;52.494;7.546;2023-07-31T10:32:38;72.50;;;68.90;;
40787;SDS011;26497;52.494;7.546;2023-07-31T10:35:09;76.90;;;73.00;;
40787;SDS011;26497;52.494;7.546;2023-07-31T10:37:37;72.45;;;68.80;;
40787;SDS011;26497;52.494;7.546;2023-07-31T10:40:09;68.47;;;64.63;;
40787;SDS011;26497;52.494;7.546;2023-07-31T10:45:13;79.25;;;75.25;;
40787;SDS011;26497;52.494;7.546;2023-07-31T10:47:50;76.82;;;72.97;;
40787;SDS011;26497;52.494;7.546;2023-07-31T10:50:26;80.28;;;76.18;;
40787;SDS011;26497;52.494;7.546;2023-07-31T10:52:55;75.32;;;71.47;;
40787;SDS011;26497;52.494;7.546;2023-07-31T10:55:24;81.13;;;76.82;;
40787;SDS011;26497;52.494;7.546;2023-07-31T10:57:56;80.00;;;75.85;;
40787;SDS011;26497;52.494;7.546;2023-07-31T11:00:30;78.78;;;74.72;;
40787;SDS011;26497;52.494;7.546;2023-07-31T11:03:01;82.82;;;78.32;;
40787;SDS011;26497;52.494;7.546;2023-07-31T11:08:19;95.60;;;90.60;;
40787;SDS011;26497;52.494;7.546;2023-07-31T11:10:48;101.57;;;96.20;;
40787;SDS011;26497;52.494;7.546;2023-07-31T11:13:18;105.57;;;100.07;;
40787;SDS011;26497;52.494;7.546;2023-07-31T11:15:45;106.47;;;100.93;;
40787;SDS011;26497;52.494;7.546;2023-07-31T11:18:12;109.38;;;103.68;;
40787;SDS011;26497;52.494;7.546;2023-07-31T11:20:45;111.50;;;105.65;;
40787;SDS011;26497;52.494;7.546;2023-07-31T11:23:13;110.40;;;104.63;;
40787;SDS011;26497;52.494;7.546;2023-07-31T11:25:43;110.95;;;105.10;;
40787;SDS011;26497;52.494;7.546;2023-07-31T11:28:11;109.78;;;104.07;;
40787;SDS011;26497;52.494;7.546;2023-07-31T11:30:40;104.60;;;98.97;;
40787;SDS011;26497;52.494;7.546;2023-07-31T11:33:10;87.35;;;82.75;;
40787;SDS011;26497;52.494;7.546;2023-07-31T11:35:41;74.97;;;70.78;;
40787;SDS011;26497;52.494;7.546;2023-07-31T11:38:11;67.75;;;64.28;;
40787;SDS011;26497;52.494;7.546;2023-07-31T11:40:46;70.75;;;67.15;;
40787;SDS011;26497;52.494;7.546;2023-07-31T11:43:13;76.90;;;72.75;;
40787;SDS011;26497;52.494;7.546;2023-07-31T11:45:44;77.05;;;73.07;;
40787;SDS011;26497;52.494;7.546;2023-07-31T11:48:18;71.15;;;67.43;;
40787;SDS011;26497;52.494;7.546;2023-07-31T11:50:47;64.00;;;60.60;;
40787;SDS011;26497;52.494;7.546;2023-07-31T11:53:17;58.97;;;55.95;;
40787;SDS011;26497;52.494;7.546;2023-07-31T11:55:48;64.57;;;60.85;;
40787;SDS011;26497;52.494;7.546;2023-07-31T11:58:16;66.22;;;62.88;;
40787;SDS011;26497;52.494;7.546;2023-07-31T12:00:46;69.30;;;65.80;;
40787;SDS011;26497;52.494;7.546;2023-07-31T12:03:14;70.80;;;67.20;;
40787;SDS011;26497;52.494;7.546;2023-07-31T12:05:41;71.78;;;68.03;;
40787;SDS011;26497;52.494;7.546;2023-07-31T12:08:09;72.00;;;68.15;;
40787;SDS011;26497;52.494;7.546;2023-07-31T12:10:37;69.28;;;65.72;;
40787;SDS011;26497;52.494;7.546;2023-07-31T12:13:08;68.90;;;65.13;;
40787;SDS011;26497;52.494;7.546;2023-07-31T12:15:47;63.30;;;60.05;;
40787;SDS011;26497;52.494;7.546;2023-07-31T12:18:15;63.90;;;60.55;;
40787;SDS011;26497;52.494;7.546;2023-07-31T12:20:47;63.38;;;59.67;;
40787;SDS011;26497;52.494;7.546;2023-07-31T12:23:20;65.18;;;61.58;;
40787;SDS011;26497;52.494;7.546;2023-07-31T12:25:59;68.28;;;64.75;;
40787;SDS011;26497;52.494;7.546;2023-07-31T12:28:27;66.95;;;63.25;;
40787;SDS011;26497;52.494;7.546;2023-07-31T12:30:57;66.72;;;63.13;;
40787;SDS011;26497;52.494;7.546;2023-07-31T12:33:30;64.90;;;61.50;;
40787;SDS011;26497;52.494;7.546;2023-07-31T12:36:00;66.38;;;62.42;;
40787;SDS011;26497;52.494;7.546;2023-07-31T12:38:27;64.15;;;60.42;;
40787;SDS011;26497;52.494;7.546;2023-07-31T12:40:54;65.68;;;61.88;;
40787;SDS011;26497;52.494;7.546;2023-07-31T12:43:22;68.55;;;63.88;;
40787;SDS011;26497;52.494;7.546;2023-07-31T12:45:49;65.40;;;61.90;;
40787;SDS011;26497;52.494;7.546;2023-07-31T12:48:17;66.03;;;62.33;;
40787;SDS011;26497;52.494;7.546;2023-07-31T12:50:44;63.47;;;59.78;;
40787;SDS011;26497;52.494;7.546;2023-07-31T12:53:11;65.45;;;61.78;;
40787;SDS011;26497;52.494;7.546;2023-07-31T12:55:38;64.72;;;61.03;;
40787;SDS011;26497;52.494;7.546;2023-07-31T12:58:05;62.58;;;58.95;;
40787;SDS011;26497;52.494;7.546;2023-07-31T13:00:32;64.63;;;60.78;;
40787;SDS011;26497;52.494;7.546;2023-07-31T13:02:59;64.53;;;60.58;;
40787;SDS011;26497;52.494;7.546;2023-07-31T13:05:28;63.45;;;59.85;;
40787;SDS011;26497;52.494;7.546;2023-07-31T13:07:56;64.15;;;60.40;;
40787;SDS011;26497;52.494;7.546;2023-07-31T13:10:23;64.78;;;61.00;;
40787;SDS011;26497;52.494;7.546;2023-07-31T13:12:51;65.47;;;61.78;;
40787;SDS011;26497;52.494;7.546;2023-07-31T13:15:18;65.07;;;61.38;;
40787;SDS011;26497;52.494;7.546;2023-07-31T13:17:46;66.63;;;62.63;;
40787;SDS011;26497;52.494;7.546;2023-07-31T13:20:13;62.42;;;58.85;;
40787;SDS011;26497;52.494;7.546;2023-07-31T13:22:41;64.85;;;61.15;;
40787;SDS011;26497;52.494;7.546;2023-07-31T13:25:08;62.60;;;58.88;;
40787;SDS011;26497;52.494;7.546;2023-07-31T13:27:35;62.10;;;58.30;;
40787;SDS011;26497;52.494;7.546;2023-07-31T13:30:02;59.90;;;55.90;;
40787;SDS011;26497;52.494;7.546;2023-07-31T13:32:31;59.72;;;56.40;;
40787;SDS011;26497;52.494;7.546;2023-07-31T13:34:57;58.65;;;55.05;;
40787;SDS011;26497;52.494;7.546;2023-07-31T13:37:24;58.47;;;54.67;;
40787;SDS011;26497;52.494;7.546;2023-07-31T13:39:53;62.90;;;59.25;;
40787;SDS011;26497;52.494;7.546;2023-07-31T13:42:20;66.50;;;61.97;;
40787;SDS011;26497;52.494;7.546;2023-07-31T13:44:47;66.10;;;62.40;;
40787;SDS011;26497;52.494;7.546;2023-07-31T13:47:14;70.03;;;66.07;;
40787;SDS011;26497;52.494;7.546;2023-07-31T13:49:41;74.70;;;70.15;;
40787;SDS011;26497;52.494;7.546;2023-07-31T13:52:08;80.78;;;76.10;;
40787;SDS011;26497;52.494;7.546;2023-07-31T13:54:35;83.07;;;78.43;;
40787;SDS011;26497;52.494;7.546;2023-07-31T13:57:04;88.93;;;83.65;;
40787;SDS011;26497;52.494;7.546;2023-07-31T13:59:31;91.00;;;85.88;;
40787;SDS011;26497;52.494;7.546;2023-07-31T14:01:58;98.95;;;93.05;;
40787;SDS011;26497;52.494;7.546;2023-07-31T14:04:25;98.20;;;92.68;;
40787;SDS011;26497;52.494;7.546;2023-07-31T14:06:53;99.38;;;93.75;;
40787;SDS011;26497;52.494;7.546;2023-07-31T14:09:21;97.00;;;91.68;;
40787;SDS011;26497;52.494;7.546;2023-07-31T14:11:48;94.10;;;88.72;;
40787;SDS011;26497;52.494;7.546;2023-07-31T14:14:17;87.68;;;82.65;;
40787;SDS011;26497;52.494;7.546;2023-07-31T14:16:44;562.75;;;309.25;;
40787;SDS011;26497;52.494;7.546;2023-07-31T14:19:11;1999.90;;;999.90;;